createdAt,value
2022-10-26T00:01:22.128Z,86.34
2022-10-26T00:03:50.051Z,86.07
2022-10-26T00:06:24.895Z,85.97
2022-10-26T00:08:53.068Z,85.89
2022-10-26T00:11:20.651Z,85.86
2022-10-26T00:13:49.152Z,86.03
2022-10-26T00:16:26.988Z,86.11
2022-10-26T00:18:55.101Z,86.07
2022-10-26T00:21:22.744Z,85.97
2022-10-26T00:23:50.381Z,85.86
2022-10-26T00:26:18.052Z,85.84
2022-10-26T00:28:45.645Z,86.18
2022-10-26T00:31:14.958Z,86.38
2022-10-26T00:33:42.818Z,86.31
2022-10-26T00:36:13.731Z,86.17
2022-10-26T00:38:46.090Z,85.89
2022-10-26T00:41:22.876Z,85.94
2022-10-26T00:43:50.849Z,86.03
2022-10-26T00:46:21.907Z,86.26
2022-10-26T00:48:56.841Z,86.60
2022-10-26T00:51:36.848Z,86.69
2022-10-26T00:54:09.748Z,86.63
2022-10-26T00:56:37.660Z,86.44
2022-10-26T00:59:10.558Z,86.41
2022-10-26T01:01:41.109Z,86.26
2022-10-26T01:04:09.281Z,86.48
2022-10-26T01:06:38.324Z,86.72
2022-10-26T01:09:06.267Z,86.73
2022-10-26T01:11:34.057Z,86.60
2022-10-26T01:14:04.861Z,86.59
2022-10-26T01:17:04.985Z,86.27
2022-10-26T01:19:32.569Z,85.98
2022-10-26T01:22:09.081Z,86.08
2022-10-26T01:24:42.594Z,86.10
2022-10-26T01:27:39.223Z,86.22
2022-10-26T01:30:36.398Z,86.14
2022-10-26T01:33:10.569Z,86.11
2022-10-26T01:35:50.243Z,85.96
2022-10-26T01:38:40.838Z,85.93
2022-10-26T01:41:28.183Z,86.10
2022-10-26T01:44:01.162Z,85.91
2022-10-26T01:46:33.565Z,86.03
2022-10-26T01:49:08.178Z,85.56
2022-10-26T01:51:36.959Z,85.33
2022-10-26T01:54:04.570Z,85.77
2022-10-26T01:56:36.634Z,86.04
2022-10-26T01:59:41.559Z,86.06
2022-10-26T02:02:37.247Z,85.84
2022-10-26T02:05:20.806Z,85.66
2022-10-26T02:08:04.993Z,85.62
2022-10-26T02:10:38.527Z,85.72
2022-10-26T02:13:28.336Z,86.00
2022-10-26T02:16:30.417Z,86.23
2022-10-26T02:19:02.503Z,86.26
2022-10-26T02:21:38.014Z,86.08
2022-10-26T02:26:44.038Z,86.04
2022-10-26T02:29:19.122Z,85.86
2022-10-26T02:31:49.242Z,85.92
2022-10-26T02:34:22.422Z,86.22
2022-10-26T02:36:53.636Z,86.53
2022-10-26T02:39:22.249Z,86.28
2022-10-26T02:41:52.356Z,86.22
2022-10-26T02:44:27.063Z,86.26
2022-10-26T02:46:55.807Z,86.01
2022-10-26T02:49:24.362Z,85.91
2022-10-26T02:52:01.485Z,86.05
2022-10-26T02:54:47.154Z,86.01
2022-10-26T02:57:24.433Z,85.96
2022-10-26T02:59:53.914Z,85.89
2022-10-26T03:02:23.174Z,86.01
2022-10-26T03:04:51.177Z,86.07
2022-10-26T03:07:22.382Z,86.03
2022-10-26T03:09:50.176Z,86.07
2022-10-26T03:12:18.193Z,86.19
2022-10-26T03:14:46.370Z,86.25
2022-10-26T03:17:14.026Z,86.16
2022-10-26T03:19:41.612Z,85.85
2022-10-26T03:22:09.275Z,85.73
2022-10-26T03:24:37.882Z,85.79
2022-10-26T03:27:05.514Z,85.90
2022-10-26T03:29:33.248Z,86.02
2022-10-26T03:32:00.922Z,85.93
2022-10-26T03:34:28.632Z,85.95
2022-10-26T03:36:56.288Z,85.95
2022-10-26T03:56:27.153Z,86.35
2022-10-26T03:58:53.397Z,86.42
2022-10-26T04:01:19.660Z,86.63
2022-10-26T04:03:46.107Z,86.89
2022-10-26T04:06:12.867Z,86.70
2022-10-26T04:08:39.185Z,86.60
2022-10-26T04:11:05.529Z,86.40
2022-10-26T04:13:31.852Z,86.98
2022-10-26T04:15:58.159Z,86.80
2022-10-26T04:18:24.463Z,86.81
2022-10-26T04:20:50.796Z,87.18
2022-10-26T04:23:18.819Z,86.97
2022-10-26T04:25:45.397Z,86.84
2022-10-26T04:28:13.162Z,86.47
2022-10-26T04:30:40.317Z,86.33
2022-10-26T04:33:07.131Z,86.65
2022-10-26T04:35:34.191Z,86.93
2022-10-26T04:38:02.693Z,87.17
2022-10-26T04:40:30.171Z,87.15
2022-10-26T04:42:57.081Z,87.06
2022-10-26T04:45:23.524Z,87.19
2022-10-26T04:48:05.374Z,86.87
2022-10-26T04:50:32.056Z,87.04
2022-10-26T04:52:58.495Z,87.42
2022-10-26T04:55:24.835Z,87.69
2022-10-26T04:57:52.291Z,87.98
2022-10-26T05:00:20.277Z,87.70
2022-10-26T05:02:46.641Z,87.52
2022-10-26T05:05:15.106Z,87.41
2022-10-26T05:07:41.621Z,87.57
2022-10-26T05:10:08.772Z,87.76
2022-10-26T05:12:35.101Z,87.75
2022-10-26T05:15:03.944Z,87.73
2022-10-26T05:17:32.717Z,87.66
2022-10-26T05:20:05.121Z,87.44
2022-10-26T05:22:31.847Z,87.28
2022-10-26T05:24:58.173Z,87.17
2022-10-26T05:27:24.419Z,87.71
2022-10-26T05:29:50.731Z,88.18
2022-10-26T05:32:16.954Z,88.19
2022-10-26T05:34:43.392Z,88.19
2022-10-26T05:37:09.742Z,88.05
2022-10-26T05:39:36.036Z,88.05
2022-10-26T05:42:02.378Z,87.68
2022-10-26T05:44:28.638Z,87.95
2022-10-26T05:46:54.966Z,88.21
2022-10-26T05:49:21.203Z,88.36
2022-10-26T05:51:47.506Z,88.36
2022-10-26T05:54:14.171Z,88.31
2022-10-26T05:56:41.211Z,88.37
2022-10-26T05:59:15.647Z,88.18
2022-10-26T06:02:11.013Z,88.48
2022-10-26T06:04:38.021Z,88.43
2022-10-26T06:07:11.461Z,88.66
2022-10-26T06:09:39.139Z,88.89
2022-10-26T06:12:06.958Z,88.64
2022-10-26T06:14:34.591Z,88.40
2022-10-26T06:17:10.004Z,88.37
2022-10-26T06:20:15.235Z,88.13
2022-10-26T06:23:08.788Z,88.22
2022-10-26T06:25:58.744Z,88.29
2022-10-26T06:28:40.917Z,88.25
2022-10-26T06:31:07.625Z,87.86
2022-10-26T06:33:34.106Z,87.55
2022-10-26T06:36:23.379Z,87.38
2022-10-26T06:38:59.330Z,87.32
2022-10-26T06:41:26.354Z,87.40
2022-10-26T06:43:52.931Z,87.27
2022-10-26T06:46:37.778Z,87.06
2022-10-26T06:49:08.100Z,86.95
2022-10-26T06:51:42.678Z,86.84
2022-10-26T06:54:24.263Z,86.83
2022-10-26T06:56:51.766Z,86.85
2022-10-26T06:59:29.957Z,87.14
2022-10-26T07:01:56.261Z,87.02
2022-10-26T07:04:22.560Z,86.89
2022-10-26T07:06:49.051Z,86.84
2022-10-26T07:09:15.290Z,86.64
2022-10-26T07:11:41.500Z,86.45
2022-10-26T07:14:07.995Z,86.64
2022-10-26T07:16:34.293Z,86.91
2022-10-26T07:19:00.632Z,87.02
2022-10-26T07:21:27.361Z,86.57
2022-10-26T07:23:56.249Z,86.39
2022-10-26T07:26:24.885Z,86.20
2022-10-26T07:28:51.617Z,86.22
2022-10-26T07:31:18.318Z,86.32
2022-10-26T07:33:44.728Z,86.50
2022-10-26T07:36:11.856Z,86.21
2022-10-26T07:38:38.851Z,85.95
2022-10-26T07:41:05.555Z,85.58
2022-10-26T07:43:31.897Z,85.33
2022-10-26T07:45:58.319Z,85.00
2022-10-26T07:48:24.544Z,85.19
2022-10-26T07:50:50.805Z,85.46
2022-10-26T07:53:17.029Z,85.37
2022-10-26T07:55:43.316Z,85.48
2022-10-26T07:58:09.688Z,85.01
2022-10-26T08:00:35.997Z,84.81
2022-10-26T08:03:02.249Z,84.72
2022-10-26T08:05:28.807Z,84.91
2022-10-26T08:07:55.184Z,84.80
2022-10-26T08:10:21.848Z,84.74
2022-10-26T08:12:48.232Z,84.47
2022-10-26T08:15:14.491Z,83.99
2022-10-26T08:17:40.798Z,83.85
2022-10-26T08:20:07.735Z,83.81
2022-10-26T08:22:34.109Z,84.30
2022-10-26T08:25:00.344Z,84.57
2022-10-26T08:27:26.717Z,84.62
2022-10-26T08:29:53.121Z,84.31
2022-10-26T08:32:19.729Z,84.04
2022-10-26T08:34:46.168Z,83.70
2022-10-26T08:37:12.600Z,83.86
2022-10-26T08:39:38.808Z,83.76
2022-10-26T08:42:19.749Z,83.95
2022-10-26T08:44:47.857Z,84.17
2022-10-26T08:47:14.202Z,83.82
2022-10-26T08:49:50.374Z,83.72
2022-10-26T08:52:22.625Z,83.76
2022-10-26T08:54:53.603Z,83.72
2022-10-26T08:57:32.797Z,83.76
2022-10-26T09:00:04.365Z,83.86
2022-10-26T09:02:32.036Z,83.78
2022-10-26T09:04:59.343Z,83.57
2022-10-26T09:07:25.521Z,83.39
2022-10-26T09:10:17.329Z,83.35
2022-10-26T09:13:05.074Z,83.31
2022-10-26T09:15:37.757Z,83.27
2022-10-26T09:18:15.874Z,83.58
2022-10-26T09:21:07.857Z,83.43
2022-10-26T09:23:52.784Z,83.08
2022-10-26T09:27:00.829Z,82.86
2022-10-26T09:29:31.443Z,82.41
2022-10-26T09:32:00.730Z,82.38
2022-10-26T09:34:47.178Z,82.99
2022-10-26T09:37:27.545Z,83.02
2022-10-26T09:40:07.156Z,83.10
2022-10-26T09:42:41.172Z,82.48
2022-10-26T09:45:19.298Z,82.11
2022-10-26T09:47:52.144Z,81.64
2022-10-26T09:50:35.142Z,81.65
2022-10-26T09:53:02.421Z,82.13
2022-10-26T09:55:31.256Z,82.33
2022-10-26T09:58:03.172Z,81.91
2022-10-26T10:00:30.166Z,81.69
2022-10-26T10:02:58.074Z,81.45
2022-10-26T10:08:25.295Z,81.58
2022-10-26T10:10:59.953Z,81.72
2022-10-26T10:13:30.304Z,81.76
2022-10-26T10:16:10.727Z,81.61
2022-10-26T10:18:38.490Z,81.47
2022-10-26T10:21:06.361Z,81.02
2022-10-26T10:23:46.835Z,80.30
2022-10-26T10:26:13.291Z,79.41
2022-10-26T10:28:41.941Z,79.83
2022-10-26T10:31:32.419Z,80.11
2022-10-26T10:33:59.266Z,80.31
2022-10-26T10:36:29.515Z,80.23
2022-10-26T10:38:55.996Z,79.94
2022-10-26T10:41:27.997Z,79.88
2022-10-26T10:44:20.521Z,79.94
2022-10-26T10:46:47.127Z,80.01
2022-10-26T10:49:27.004Z,79.79
2022-10-26T10:51:55.238Z,79.27
2022-10-26T10:54:37.061Z,79.73
2022-10-26T10:57:26.195Z,79.34
2022-10-26T11:00:03.304Z,79.10
2022-10-26T11:02:59.217Z,78.58
2022-10-26T11:06:18.126Z,78.12
2022-10-26T11:09:07.139Z,77.92
2022-10-26T11:11:52.898Z,77.32
2022-10-26T11:14:25.548Z,77.23
2022-10-26T11:16:58.388Z,76.63
2022-10-26T11:19:39.401Z,77.08
2022-10-26T11:22:13.073Z,77.61
2022-10-26T11:24:49.061Z,77.47
2022-10-26T11:27:27.743Z,76.71
2022-10-26T11:30:09.331Z,77.02
2022-10-26T11:32:53.848Z,76.10
2022-10-26T11:35:37.202Z,76.52
2022-10-26T11:38:09.176Z,76.56
2022-10-26T11:41:14.775Z,76.30
2022-10-26T11:43:47.807Z,76.82
2022-10-26T11:46:27.885Z,77.07
2022-10-26T11:48:59.471Z,77.25
2022-10-26T11:51:31.882Z,77.35
2022-10-26T11:54:07.172Z,76.77
2022-10-26T11:56:38.172Z,76.90
2022-10-26T11:59:06.068Z,76.52
2022-10-26T12:01:33.868Z,76.29
2022-10-26T12:04:02.437Z,76.43
2022-10-26T12:06:31.396Z,75.51
2022-10-26T12:09:06.157Z,75.79
2022-10-26T12:11:42.508Z,76.02
2022-10-26T12:14:17.917Z,75.78
2022-10-26T12:16:59.361Z,76.19
2022-10-26T12:19:33.579Z,76.62
2022-10-26T12:22:00.701Z,76.63
2022-10-26T12:24:32.828Z,76.33
2022-10-26T12:27:01.610Z,76.19
2022-10-26T12:29:38.212Z,75.76
2022-10-26T12:32:29.977Z,75.51
2022-10-26T12:34:59.665Z,75.70
2022-10-26T12:37:37.603Z,75.68
2022-10-26T12:40:40.498Z,76.38
2022-10-26T12:43:12.739Z,76.59
2022-10-26T12:45:42.716Z,76.41
2022-10-26T12:48:38.426Z,76.14
2022-10-26T12:51:27.136Z,75.93
2022-10-26T12:54:01.333Z,75.78
2022-10-26T12:56:36.393Z,76.07
2022-10-26T12:59:20.950Z,76.01
2022-10-26T13:02:05.904Z,76.21
2022-10-26T13:04:57.921Z,76.52
2022-10-26T13:07:36.815Z,76.75
2022-10-26T13:10:18.945Z,76.60
2022-10-26T13:12:47.323Z,76.75
2022-10-26T13:15:28.406Z,76.47
2022-10-26T13:17:56.852Z,76.65
2022-10-26T13:20:23.424Z,76.58
2022-10-26T13:22:50.245Z,76.74
2022-10-26T13:25:28.481Z,77.19
2022-10-26T13:28:21.115Z,77.89
2022-10-26T13:30:47.521Z,78.31
2022-10-26T13:33:24.015Z,78.36
2022-10-26T13:35:54.362Z,78.30
2022-10-26T13:38:23.599Z,78.25
2022-10-26T13:40:58.302Z,78.15
2022-10-26T13:43:26.579Z,78.04
2022-10-26T13:45:54.569Z,77.88
2022-10-26T13:48:29.128Z,77.86
2022-10-26T13:51:00.737Z,78.00
2022-10-26T13:53:56.708Z,78.35
2022-10-26T13:56:43.723Z,78.04
2022-10-26T13:59:12.776Z,78.19
2022-10-26T14:01:39.728Z,77.99
2022-10-26T14:04:28.217Z,77.89
2022-10-26T14:06:55.677Z,77.95
2022-10-26T14:09:22.585Z,77.52
2022-10-26T14:11:51.989Z,77.86
2022-10-26T14:14:26.189Z,78.24
2022-10-26T14:16:53.573Z,78.48
2022-10-26T14:19:25.569Z,78.09
2022-10-26T14:21:52.577Z,78.19
2022-10-26T14:24:35.799Z,78.18
2022-10-26T14:27:18.118Z,78.34
2022-10-26T14:29:49.817Z,78.21
2022-10-26T14:32:31.377Z,78.03
2022-10-26T14:34:57.645Z,78.59
2022-10-26T14:37:38.095Z,79.18
2022-10-26T14:40:07.353Z,79.26
2022-10-26T14:42:39.414Z,79.05
2022-10-26T14:45:29.524Z,79.02
2022-10-26T14:47:56.818Z,79.47
2022-10-26T14:50:26.810Z,79.09
2022-10-26T14:52:56.157Z,79.27
2022-10-26T14:55:25.293Z,79.68
2022-10-26T14:58:05.530Z,79.92
2022-10-26T15:00:32.883Z,80.24
2022-10-26T15:02:59.583Z,80.03
2022-10-26T15:05:35.558Z,79.96
2022-10-26T15:08:02.720Z,79.72
2022-10-26T15:10:35.036Z,79.62
2022-10-26T15:13:28.539Z,79.45
2022-10-26T15:15:58.554Z,79.95
2022-10-26T15:18:28.443Z,80.41
2022-10-26T15:20:56.228Z,80.62
2022-10-26T15:26:30.551Z,80.37
2022-10-26T15:28:59.352Z,80.01
2022-10-26T15:31:27.356Z,79.97
2022-10-26T15:33:55.060Z,79.94
2022-10-26T15:36:26.925Z,80.25
2022-10-26T15:38:55.729Z,80.62
2022-10-26T15:41:36.781Z,80.56
2022-10-26T15:44:13.872Z,80.41
2022-10-26T15:46:42.314Z,80.43
2022-10-26T15:49:16.388Z,80.75
2022-10-26T15:51:46.104Z,80.75
2022-10-26T15:54:14.578Z,80.84
2022-10-26T15:56:43.864Z,80.94
2022-10-26T15:59:19.312Z,81.30
2022-10-26T16:01:47.127Z,81.17
2022-10-26T16:04:15.054Z,81.07
2022-10-26T16:06:42.935Z,80.96
2022-10-26T16:09:15.589Z,80.75
2022-10-26T16:11:44.535Z,80.56
2022-10-26T16:14:12.962Z,80.53
2022-10-26T16:16:41.417Z,80.72
2022-10-26T16:19:30.895Z,81.30
2022-10-26T16:21:58.630Z,81.40
2022-10-26T16:24:27.843Z,81.28
2022-10-26T16:26:56.382Z,81.23
2022-10-26T16:29:24.244Z,81.51
2022-10-26T16:31:51.870Z,81.23
2022-10-26T16:34:19.646Z,81.38
2022-10-26T16:36:47.368Z,81.44
2022-10-26T16:39:14.985Z,81.89
2022-10-26T16:41:42.610Z,81.86
2022-10-26T16:44:12.886Z,81.81
2022-10-26T16:46:40.482Z,81.89
2022-10-26T16:49:08.171Z,81.60
2022-10-26T16:51:36.013Z,81.33
2022-10-26T16:54:03.954Z,81.20
2022-10-26T16:56:31.771Z,81.51
2022-10-26T16:58:59.446Z,81.79
2022-10-26T17:01:27.242Z,82.05
2022-10-26T17:03:55.038Z,81.99
2022-10-26T17:06:22.809Z,81.81
2022-10-26T17:08:50.443Z,81.90
2022-10-26T17:11:21.025Z,82.19
2022-10-26T17:13:53.815Z,82.24
2022-10-26T17:16:23.690Z,82.36
2022-10-26T17:18:53.926Z,83.02
2022-10-26T17:21:39.892Z,83.17
2022-10-26T17:24:07.657Z,83.12
2022-10-26T17:26:35.465Z,82.74
2022-10-26T17:29:03.826Z,82.03
2022-10-26T17:31:32.071Z,82.39
2022-10-26T17:33:59.748Z,82.05
2022-10-26T17:36:27.637Z,82.54
2022-10-26T17:38:55.830Z,82.90
2022-10-26T17:41:24.561Z,82.60
2022-10-26T17:43:53.310Z,82.51
2022-10-26T17:46:24.214Z,82.36
2022-10-26T17:48:57.230Z,83.11
2022-10-26T18:07:15.855Z,83.67
2022-10-26T18:09:43.481Z,83.38
2022-10-26T18:12:11.218Z,83.55
2022-10-26T18:14:38.809Z,83.69
2022-10-26T18:17:06.805Z,83.37
2022-10-26T18:19:34.519Z,83.85
2022-10-26T18:22:02.176Z,83.93
2022-10-26T18:24:29.832Z,83.75
2022-10-26T18:26:58.144Z,83.65
2022-10-26T18:29:25.749Z,83.59
2022-10-26T18:31:53.336Z,83.83
2022-10-26T18:34:21.037Z,84.03
2022-10-26T18:36:48.868Z,83.84
2022-10-26T18:39:16.586Z,84.14
2022-10-26T18:41:44.494Z,84.21
2022-10-26T18:44:12.622Z,83.87
2022-10-26T18:46:42.593Z,83.67
2022-10-26T18:49:10.497Z,84.42
2022-10-26T18:51:38.308Z,83.99
2022-10-26T18:54:05.985Z,83.68
2022-10-26T18:56:33.685Z,83.99
2022-10-26T18:59:01.670Z,84.95
2022-10-26T19:01:35.123Z,84.69
2022-10-26T19:04:05.836Z,84.79
2022-10-26T19:06:36.817Z,85.50
2022-10-26T19:09:06.855Z,85.41
2022-10-26T19:11:35.356Z,84.86
2022-10-26T19:14:03.694Z,84.88
2022-10-26T19:16:45.190Z,85.40
2022-10-26T19:19:18.508Z,85.60
2022-10-26T19:21:48.257Z,86.37
2022-10-26T19:24:19.088Z,86.12
2022-10-26T19:26:48.622Z,86.68
2022-10-26T19:29:16.960Z,86.98
2022-10-26T19:31:46.680Z,87.18
2022-10-26T19:34:16.304Z,86.71
2022-10-26T19:36:47.065Z,86.04
2022-10-26T19:39:16.432Z,86.45
2022-10-26T19:41:45.374Z,86.21
2022-10-26T19:44:14.556Z,86.10
2022-10-26T19:46:43.650Z,85.62
2022-10-26T19:49:12.869Z,85.29
2022-10-26T19:51:40.725Z,85.11
2022-10-26T19:54:08.941Z,85.33
2022-10-26T19:56:37.381Z,85.69
2022-10-26T19:59:05.706Z,86.04
2022-10-26T20:01:34.124Z,86.48
2022-10-26T20:04:02.776Z,86.80
2022-10-26T20:06:31.067Z,85.83
2022-10-26T20:09:00.106Z,86.21
2022-10-26T20:11:28.336Z,86.18
2022-10-26T20:13:56.503Z,85.79
2022-10-26T20:16:25.043Z,86.06
2022-10-26T20:18:52.702Z,86.03
2022-10-26T20:21:20.453Z,85.99
2022-10-26T20:23:48.096Z,86.42
2022-10-26T20:26:19.301Z,86.73
2022-10-26T20:28:50.946Z,86.73
2022-10-26T20:31:19.884Z,86.55
2022-10-26T20:33:54.930Z,86.46
2022-10-26T20:36:23.031Z,86.88
2022-10-26T20:38:51.446Z,86.91
2022-10-26T20:41:19.660Z,87.14
2022-10-26T20:43:50.581Z,86.87
2022-10-26T20:46:25.352Z,86.97
2022-10-26T20:48:54.109Z,86.83
2022-10-26T20:52:02.699Z,86.63
2022-10-26T20:54:39.414Z,86.66
2022-10-26T20:57:13.645Z,86.99
2022-10-26T20:59:47.559Z,86.84
2022-10-26T21:02:15.841Z,86.64
2022-10-26T21:04:43.562Z,86.11
2022-10-26T21:07:11.744Z,86.05
2022-10-26T21:09:39.355Z,86.14
2022-10-26T21:12:07.254Z,86.62
2022-10-26T21:14:40.533Z,87.01
2022-10-26T21:17:09.321Z,87.43
2022-10-26T21:19:37.611Z,87.77
2022-10-26T21:22:05.241Z,88.01
2022-10-26T21:24:33.046Z,87.71
2022-10-26T21:27:00.697Z,87.12
2022-10-26T21:29:28.424Z,86.91
2022-10-26T21:31:56.082Z,87.33
2022-10-26T21:34:23.932Z,87.76
2022-10-26T21:36:51.526Z,87.40
2022-10-26T21:39:19.210Z,87.11
2022-10-26T21:41:46.884Z,87.28
2022-10-26T21:44:42.159Z,87.15
2022-10-26T21:47:02.084Z,86.91
2022-10-26T21:49:29.854Z,87.06
2022-10-26T21:51:57.468Z,87.30
2022-10-26T21:54:25.060Z,86.91
2022-10-26T21:56:52.786Z,86.44
2022-10-26T21:59:20.401Z,86.54
2022-10-26T22:01:48.427Z,86.26
2022-10-26T22:04:16.172Z,86.01
2022-10-26T22:06:43.878Z,86.13
2022-10-26T22:09:11.476Z,86.32
2022-10-26T22:11:39.124Z,86.56
2022-10-26T22:14:07.242Z,86.57
2022-10-26T22:16:34.840Z,86.45
2022-10-26T22:19:05.931Z,86.39
2022-10-26T22:21:39.045Z,86.31
2022-10-26T22:24:07.792Z,86.24
2022-10-26T22:26:36.970Z,85.94
2022-10-26T22:29:05.225Z,86.36
2022-10-26T22:31:35.396Z,86.22
2022-10-26T22:34:12.724Z,86.18
2022-10-26T22:36:40.471Z,86.16
2022-10-26T22:39:08.089Z,86.23
2022-10-26T22:41:35.695Z,86.20
2022-10-26T22:44:03.719Z,86.17
2022-10-26T22:46:31.423Z,86.30
2022-10-26T22:49:01.562Z,86.85
2022-10-26T22:51:34.531Z,86.86
2022-10-26T22:54:04.423Z,86.46
2022-10-26T22:56:33.684Z,86.39
2022-10-26T22:59:01.668Z,86.29
2022-10-26T23:01:33.004Z,86.33
2022-10-26T23:04:00.753Z,86.57
2022-10-26T23:06:31.504Z,86.73
2022-10-26T23:08:59.817Z,86.96
2022-10-26T23:11:29.287Z,86.91
2022-10-26T23:13:59.514Z,86.82
2022-10-26T23:16:28.437Z,86.96
2022-10-26T23:18:56.563Z,87.19
2022-10-26T23:23:58.358Z,86.70
2022-10-26T23:26:26.256Z,86.88
2022-10-26T23:28:54.088Z,87.11
2022-10-26T23:31:25.690Z,87.05
2022-10-26T23:33:56.123Z,86.97
2022-10-26T23:36:24.681Z,86.89
2022-10-26T23:38:52.771Z,87.30
2022-10-26T23:41:20.414Z,87.50
2022-10-26T23:43:48.068Z,88.22
2022-10-26T23:46:15.881Z,87.81
2022-10-26T23:48:43.665Z,87.69
2022-10-26T23:51:11.254Z,87.81
2022-10-26T23:53:38.877Z,88.26
2022-10-26T23:56:06.999Z,88.24
2022-10-26T23:58:34.811Z,88.19
